sensor_id;sensor_type;location;lat;lon;timestamp;pressure;altitude;pressure_sealevel;temperature;humidity
50282;BME280;36176;51.506;10.272;2023-04-15T00:02:14;98641.47;;;3.43;95.84
50282;BME280;36176;51.506;10.272;2023-04-15T00:04:41;98641.38;;;3.46;95.35
50282;BME280;36176;51.506;10.272;2023-04-15T00:07:08;98644.81;;;3.48;95.27
50282;BME280;36176;51.506;10.272;2023-04-15T00:09:35;98640.47;;;3.47;94.47
50282;BME280;36176;51.506;10.272;2023-04-15T00:12:03;98639.59;;;3.46;95.07
50282;BME280;36176;51.506;10.272;2023-04-15T00:14:30;98645.69;;;3.47;95.74
50282;BME280;36176;51.506;10.272;2023-04-15T00:16:57;98638.75;;;3.46;95.58
50282;BME280;36176;51.506;10.272;2023-04-15T00:19:24;98636.13;;;3.46;95.43
50282;BME280;36176;51.506;10.272;2023-04-15T00:21:51;98640.41;;;3.48;95.21
50282;BME280;36176;51.506;10.272;2023-04-15T00:24:18;98635.16;;;3.50;95.01
50282;BME280;36176;51.506;10.272;2023-04-15T00:26:45;98639.44;;;3.52;95.31
50282;BME280;36176;51.506;10.272;2023-04-15T00:29:12;98634.09;;;3.55;95.11
50282;BME280;36176;51.506;10.272;2023-04-15T00:31:40;98629.66;;;3.57;95.51
50282;BME280;36176;51.506;10.272;2023-04-15T00:34:07;98634.91;;;3.57;95.67
50282;BME280;36176;51.506;10.272;2023-04-15T00:36:35;98632.13;;;3.62;95.52
50282;BME280;36176;51.506;10.272;2023-04-15T00:39:02;98622.41;;;3.66;95.42
50282;BME280;36176;51.506;10.272;2023-04-15T00:41:29;98623.16;;;3.69;95.01
50282;BME280;36176;51.506;10.272;2023-04-15T00:43:57;98623.06;;;3.72;95.28
50282;BME280;36176;51.506;10.272;2023-04-15T00:46:26;98616.84;;;3.75;94.61
50282;BME280;36176;51.506;10.272;2023-04-15T00:48:54;98614.19;;;3.76;94.76
50282;BME280;36176;51.506;10.272;2023-04-15T00:51:21;98622.75;;;3.81;95.17
50282;BME280;36176;51.506;10.272;2023-04-15T00:53:49;98620.84;;;3.87;94.84
50282;BME280;36176;51.506;10.272;2023-04-15T00:56:19;98615.47;;;3.90;94.29
50282;BME280;36176;51.506;10.272;2023-04-15T00:58:47;98621.38;;;3.96;94.51
50282;BME280;36176;51.506;10.272;2023-04-15T01:01:14;98621.34;;;3.98;94.46
50282;BME280;36176;51.506;10.272;2023-04-15T01:03:42;98631.00;;;3.96;94.74
50282;BME280;36176;51.506;10.272;2023-04-15T01:06:09;98624.03;;;3.95;94.66
50282;BME280;36176;51.506;10.272;2023-04-15T01:08:37;98620.53;;;3.96;94.57
50282;BME280;36176;51.506;10.272;2023-04-15T01:11:04;98617.78;;;3.99;95.19
50282;BME280;36176;51.506;10.272;2023-04-15T01:13:33;98610.63;;;4.04;94.43
50282;BME280;36176;51.506;10.272;2023-04-15T01:16:00;98611.44;;;4.06;94.58
50282;BME280;36176;51.506;10.272;2023-04-15T01:18:29;98613.91;;;4.11;94.29
50282;BME280;36176;51.506;10.272;2023-04-15T01:20:57;98614.72;;;4.13;94.16
50282;BME280;36176;51.506;10.272;2023-04-15T01:23:26;98603.25;;;4.15;94.46
50282;BME280;36176;51.506;10.272;2023-04-15T01:25:54;98603.22;;;4.17;94.41
50282;BME280;36176;51.506;10.272;2023-04-15T01:28:21;98593.47;;;4.20;94.22
50282;BME280;36176;51.506;10.272;2023-04-15T01:30:48;98602.94;;;4.24;93.65
50282;BME280;36176;51.506;10.272;2023-04-15T01:33:15;98604.59;;;4.27;93.92
50282;BME280;36176;51.506;10.272;2023-04-15T01:35:42;98596.69;;;4.29;93.72
50282;BME280;36176;51.506;10.272;2023-04-15T01:38:12;98600.97;;;4.31;93.57
50282;BME280;36176;51.506;10.272;2023-04-15T01:40:39;98595.75;;;4.30;94.08
50282;BME280;36176;51.506;10.272;2023-04-15T01:43:06;98589.53;;;4.32;93.96
50282;BME280;36176;51.506;10.272;2023-04-15T01:45:33;98588.56;;;4.35;94.29
50282;BME280;36176;51.506;10.272;2023-04-15T01:48:00;98590.19;;;4.39;94.09
50282;BME280;36176;51.506;10.272;2023-04-15T01:50:28;98590.09;;;4.40;94.21
50282;BME280;36176;51.506;10.272;2023-04-15T01:52:54;98599.03;;;4.36;94.36
50282;BME280;36176;51.506;10.272;2023-04-15T01:55:21;98599.88;;;4.37;94.19
50282;BME280;36176;51.506;10.272;2023-04-15T01:57:48;98600.69;;;4.39;94.32
50282;BME280;36176;51.506;10.272;2023-04-15T02:00:15;98596.16;;;4.42;94.21
50282;BME280;36176;51.506;10.272;2023-04-15T02:02:43;98600.50;;;4.43;94.96
50282;BME280;36176;51.506;10.272;2023-04-15T02:05:10;98597.94;;;4.42;95.41
50282;BME280;36176;51.506;10.272;2023-04-15T02:07:37;98596.13;;;4.44;95.52
50282;BME280;36176;51.506;10.272;2023-04-15T02:10:04;98586.47;;;4.44;95.56
50282;BME280;36176;51.506;10.272;2023-04-15T02:12:32;98589.13;;;4.43;96.05
50282;BME280;36176;51.506;10.272;2023-04-15T02:14:58;98593.50;;;4.44;95.59
50282;BME280;36176;51.506;10.272;2023-04-15T02:17:27;98594.22;;;4.47;95.76
50282;BME280;36176;51.506;10.272;2023-04-15T02:19:57;98594.06;;;4.52;95.07
50282;BME280;36176;51.506;10.272;2023-04-15T02:22:25;98591.34;;;4.55;95.21
50282;BME280;36176;51.506;10.272;2023-04-15T02:24:52;98596.47;;;4.58;95.10
50282;BME280;36176;51.506;10.272;2023-04-15T02:27:19;98591.22;;;4.58;94.91
50282;BME280;36176;51.506;10.272;2023-04-15T02:29:46;98591.22;;;4.58;95.16
50282;BME280;36176;51.506;10.272;2023-04-15T02:32:13;98593.72;;;4.61;95.43
50282;BME280;36176;51.506;10.272;2023-04-15T02:34:40;98596.22;;;4.64;95.46
50282;BME280;36176;51.506;10.272;2023-04-15T02:37:12;98609.25;;;4.67;95.12
50282;BME280;36176;51.506;10.272;2023-04-15T02:39:39;98595.22;;;4.68;96.43
50282;BME280;36176;51.506;10.272;2023-04-15T02:42:06;98595.28;;;4.67;98.23
50282;BME280;36176;51.506;10.272;2023-04-15T02:44:33;98591.69;;;4.69;100.00
50282;BME280;36176;51.506;10.272;2023-04-15T02:47:02;98586.03;;;4.80;100.00
50282;BME280;36176;51.506;10.272;2023-04-15T02:49:30;98587.44;;;4.89;100.00
50282;BME280;36176;51.506;10.272;2023-04-15T02:51:57;98585.38;;;4.97;100.00
50282;BME280;36176;51.506;10.272;2023-04-15T02:54:25;98597.31;;;5.06;100.00
50282;BME280;36176;51.506;10.272;2023-04-15T02:56:55;98584.84;;;5.11;100.00
50282;BME280;36176;51.506;10.272;2023-04-15T02:59:22;98588.09;;;5.18;99.87
50282;BME280;36176;51.506;10.272;2023-04-15T03:01:49;98588.72;;;5.24;99.40
50282;BME280;36176;51.506;10.272;2023-04-15T03:04:16;98588.72;;;5.24;100.00
50282;BME280;36176;51.506;10.272;2023-04-15T03:06:43;98594.81;;;5.25;99.89
50282;BME280;36176;51.506;10.272;2023-04-15T03:09:10;98593.75;;;5.29;99.96
50282;BME280;36176;51.506;10.272;2023-04-15T03:11:37;98599.72;;;5.34;99.92
50282;BME280;36176;51.506;10.272;2023-04-15T03:14:06;98604.69;;;5.40;99.87
50282;BME280;36176;51.506;10.272;2023-04-15T03:16:33;98605.31;;;5.47;99.84
50282;BME280;36176;51.506;10.272;2023-04-15T03:19:02;98607.75;;;5.51;99.39
50282;BME280;36176;51.506;10.272;2023-04-15T03:21:30;98608.47;;;5.55;98.67
50282;BME280;36176;51.506;10.272;2023-04-15T03:23:57;98608.25;;;5.61;98.83
50282;BME280;36176;51.506;10.272;2023-04-15T03:26:28;98611.47;;;5.68;98.73
50282;BME280;36176;51.506;10.272;2023-04-15T03:28:55;98605.44;;;5.66;98.33
50282;BME280;36176;51.506;10.272;2023-04-15T03:31:22;98605.34;;;5.67;98.69
50282;BME280;36176;51.506;10.272;2023-04-15T03:33:49;98612.38;;;5.67;98.78
50282;BME280;36176;51.506;10.272;2023-04-15T03:36:16;98598.38;;;5.66;98.59
50282;BME280;36176;51.506;10.272;2023-04-15T03:38:43;98599.19;;;5.68;98.17
50282;BME280;36176;51.506;10.272;2023-04-15T03:41:10;98599.78;;;5.75;98.36
50282;BME280;36176;51.506;10.272;2023-04-15T03:43:38;98601.34;;;5.79;97.75
50282;BME280;36176;51.506;10.272;2023-04-15T03:46:04;98600.44;;;5.80;98.05
50282;BME280;36176;51.506;10.272;2023-04-15T03:48:31;98595.13;;;5.82;98.31
50282;BME280;36176;51.506;10.272;2023-04-15T03:50:58;98592.44;;;5.83;98.04
50282;BME280;36176;51.506;10.272;2023-04-15T03:53:25;98595.19;;;5.80;98.60
50282;BME280;36176;51.506;10.272;2023-04-15T03:55:52;98590.91;;;5.78;98.46
50282;BME280;36176;51.506;10.272;2023-04-15T03:58:19;98598.53;;;5.84;98.69
50282;BME280;36176;51.506;10.272;2023-04-15T04:00:46;98600.19;;;5.86;98.77
50282;BME280;36176;51.506;10.272;2023-04-15T04:03:13;98599.53;;;5.81;99.57
50282;BME280;36176;51.506;10.272;2023-04-15T04:05:40;98596.09;;;5.79;99.85
50282;BME280;36176;51.506;10.272;2023-04-15T04:08:07;98596.78;;;5.84;99.65
50282;BME280;36176;51.506;10.272;2023-04-15T04:10:34;98592.44;;;5.83;100.00
50282;BME280;36176;51.506;10.272;2023-04-15T04:13:01;98597.69;;;5.83;99.84
50282;BME280;36176;51.506;10.272;2023-04-15T04:15:28;98592.56;;;5.80;99.95
50282;BME280;36176;51.506;10.272;2023-04-15T04:17:55;98597.50;;;5.88;99.60
50282;BME280;36176;51.506;10.272;2023-04-15T04:20:22;98592.09;;;5.91;99.88
50282;BME280;36176;51.506;10.272;2023-04-15T04:22:49;98593.88;;;5.90;100.00
50282;BME280;36176;51.506;10.272;2023-04-15T04:25:16;98588.69;;;5.89;100.00
50282;BME280;36176;51.506;10.272;2023-04-15T04:27:43;98598.34;;;5.88;100.00
50282;BME280;36176;51.506;10.272;2023-04-15T04:30:11;98597.50;;;5.88;100.00
50282;BME280;36176;51.506;10.272;2023-04-15T04:32:38;98597.44;;;5.89;100.00
50282;BME280;36176;51.506;10.272;2023-04-15T04:35:08;98600.97;;;5.88;100.00
50282;BME280;36176;51.506;10.272;2023-04-15T04:37:35;98596.47;;;5.92;100.00
50282;BME280;36176;51.506;10.272;2023-04-15T04:40:03;98594.56;;;5.95;100.00
50282;BME280;36176;51.506;10.272;2023-04-15T04:42:30;98603.19;;;5.99;100.00
50282;BME280;36176;51.506;10.272;2023-04-15T04:44:57;98596.94;;;6.02;100.00
50282;BME280;36176;51.506;10.272;2023-04-15T04:47:24;98593.28;;;6.06;100.00
50282;BME280;36176;51.506;10.272;2023-04-15T04:49:51;98591.50;;;6.06;100.00
50282;BME280;36176;51.506;10.272;2023-04-15T04:52:18;98589.84;;;6.04;100.00
50282;BME280;36176;51.506;10.272;2023-04-15T04:54:45;98589.91;;;6.02;100.00
50282;BME280;36176;51.506;10.272;2023-04-15T04:57:13;98593.28;;;6.06;100.00
50282;BME280;36176;51.506;10.272;2023-04-15T04:59:40;98594.97;;;6.07;100.00
50282;BME280;36176;51.506;10.272;2023-04-15T05:02:07;98596.69;;;6.08;100.00
50282;BME280;36176;51.506;10.272;2023-04-15T05:04:34;98596.56;;;6.11;100.00
50282;BME280;36176;51.506;10.272;2023-04-15T05:07:02;98596.56;;;6.11;100.00
50282;BME280;36176;51.506;10.272;2023-04-15T05:09:29;98590.31;;;6.13;100.00
50282;BME280;36176;51.506;10.272;2023-04-15T05:11:58;98595.56;;;6.13;100.00
50282;BME280;36176;51.506;10.272;2023-04-15T05:14:25;98599.00;;;6.15;100.00
50282;BME280;36176;51.506;10.272;2023-04-15T05:16:52;98605.09;;;6.16;100.00
50282;BME280;36176;51.506;10.272;2023-04-15T05:19:19;98600.69;;;6.16;100.00
50282;BME280;36176;51.506;10.272;2023-04-15T05:21:46;98609.56;;;6.14;100.00
50282;BME280;36176;51.506;10.272;2023-04-15T05:24:13;98612.34;;;6.11;100.00
50282;BME280;36176;51.506;10.272;2023-04-15T05:26:40;98605.34;;;6.10;100.00
50282;BME280;36176;51.506;10.272;2023-04-15T05:29:08;98612.34;;;6.11;100.00
50282;BME280;36176;51.506;10.272;2023-04-15T05:31:35;98609.78;;;6.09;100.00
50282;BME280;36176;51.506;10.272;2023-04-15T05:34:02;98613.09;;;6.13;100.00
50282;BME280;36176;51.506;10.272;2023-04-15T05:36:30;98602.53;;;6.14;100.00
50282;BME280;36176;51.506;10.272;2023-04-15T05:38:58;98606.91;;;6.15;100.00
50282;BME280;36176;51.506;10.272;2023-04-15T05:41:25;98607.66;;;6.17;100.00
50282;BME280;36176;51.506;10.272;2023-04-15T05:43:52;98611.16;;;6.18;100.00
50282;BME280;36176;51.506;10.272;2023-04-15T05:46:19;98609.25;;;6.22;100.00
50282;BME280;36176;51.506;10.272;2023-04-15T05:48:46;98615.53;;;6.17;100.00
50282;BME280;36176;51.506;10.272;2023-04-15T05:51:13;98620.75;;;6.19;100.00
50282;BME280;36176;51.506;10.272;2023-04-15T05:53:40;98608.38;;;6.21;100.00
50282;BME280;36176;51.506;10.272;2023-04-15T05:56:07;98609.25;;;6.22;100.00
50282;BME280;36176;51.506;10.272;2023-04-15T05:58:34;98603.97;;;6.22;100.00
50282;BME280;36176;51.506;10.272;2023-04-15T06:01:02;98602.34;;;6.19;100.00
50282;BME280;36176;51.506;10.272;2023-04-15T06:03:29;98605.75;;;6.21;100.00
50282;BME280;36176;51.506;10.272;2023-04-15T06:05:56;98603.00;;;6.24;100.00
50282;BME280;36176;51.506;10.272;2023-04-15T06:08:23;98604.03;;;6.20;100.00
50282;BME280;36176;51.506;10.272;2023-04-15T06:10:50;98604.97;;;6.19;100.00
50282;BME280;36176;51.506;10.272;2023-04-15T06:13:17;98609.38;;;6.18;100.00
50282;BME280;36176;51.506;10.272;2023-04-15T06:15:44;98604.25;;;6.15;100.00
50282;BME280;36176;51.506;10.272;2023-04-15T06:18:11;98601.50;;;6.18;100.00
50282;BME280;36176;51.506;10.272;2023-04-15T06:20:39;98600.50;;;6.21;100.00
50282;BME280;36176;51.506;10.272;2023-04-15T06:23:06;98595.38;;;6.18;100.00
50282;BME280;36176;51.506;10.272;2023-04-15T06:25:33;98602.34;;;6.19;100.00
50282;BME280;36176;51.506;10.272;2023-04-15T06:27:59;98605.81;;;6.20;100.00
50282;BME280;36176;51.506;10.272;2023-04-15T06:30:28;98596.88;;;6.24;100.00
50282;BME280;36176;51.506;10.272;2023-04-15T06:32:55;98596.13;;;6.20;100.00
50282;BME280;36176;51.506;10.272;2023-04-15T06:35:22;98601.19;;;6.25;100.00
50282;BME280;36176;51.506;10.272;2023-04-15T06:37:49;98607.84;;;6.33;100.00
50282;BME280;36176;51.506;10.272;2023-04-15T06:40:16;98606.81;;;6.37;100.00
50282;BME280;36176;51.506;10.272;2023-04-15T06:42:43;98605.16;;;6.35;100.00
50282;BME280;36176;51.506;10.272;2023-04-15T06:45:10;98602.59;;;6.33;100.00
50282;BME280;36176;51.506;10.272;2023-04-15T06:47:37;98601.66;;;6.34;100.00
50282;BME280;36176;51.506;10.272;2023-04-15T06:50:05;98605.16;;;6.35;100.00
50282;BME280;36176;51.506;10.272;2023-04-15T06:52:32;98601.47;;;6.39;100.00
50282;BME280;36176;51.506;10.272;2023-04-15T06:55:00;98599.63;;;6.41;100.00
50282;BME280;36176;51.506;10.272;2023-04-15T06:57:27;98595.44;;;6.37;100.00
50282;BME280;36176;51.506;10.272;2023-04-15T06:59:54;98600.47;;;6.42;100.00
50282;BME280;36176;51.506;10.272;2023-04-15T07:02:22;98602.19;;;6.43;100.00
50282;BME280;36176;51.506;10.272;2023-04-15T07:04:49;98598.50;;;6.47;100.00
50282;BME280;36176;51.506;10.272;2023-04-15T07:07:16;98601.69;;;6.53;100.00
50282;BME280;36176;51.506;10.272;2023-04-15T07:09:43;98608.59;;;6.56;100.00
50282;BME280;36176;51.506;10.272;2023-04-15T07:12:10;98603.22;;;6.59;100.00
50282;BME280;36176;51.506;10.272;2023-04-15T07:14:37;98608.34;;;6.62;100.00
50282;BME280;36176;51.506;10.272;2023-04-15T07:17:04;98604.88;;;6.62;100.00
50282;BME280;36176;51.506;10.272;2023-04-15T07:19:32;98607.66;;;6.58;100.00
50282;BME280;36176;51.506;10.272;2023-04-15T07:21:59;98613.66;;;6.60;100.00
50282;BME280;36176;51.506;10.272;2023-04-15T07:24:26;98607.75;;;6.55;100.00
50282;BME280;36176;51.506;10.272;2023-04-15T07:26:56;98611.31;;;6.54;100.00
50282;BME280;36176;51.506;10.272;2023-04-15T07:29:26;98608.53;;;6.57;100.00
50282;BME280;36176;51.506;10.272;2023-04-15T07:31:53;98613.59;;;6.62;100.00
50282;BME280;36176;51.506;10.272;2023-04-15T07:34:22;98622.28;;;6.64;100.00
50282;BME280;36176;51.506;10.272;2023-04-15T07:36:49;98622.28;;;6.64;100.00
50282;BME280;36176;51.506;10.272;2023-04-15T07:39:17;98630.00;;;6.69;100.00
50282;BME280;36176;51.506;10.272;2023-04-15T07:41:44;98633.31;;;6.72;100.00
50282;BME280;36176;51.506;10.272;2023-04-15T07:44:12;98630.69;;;6.72;100.00
50282;BME280;36176;51.506;10.272;2023-04-15T07:46:39;98630.13;;;6.66;100.00
50282;BME280;36176;51.506;10.272;2023-04-15T07:49:06;98631.88;;;6.65;100.00
50282;BME280;36176;51.506;10.272;2023-04-15T07:51:33;98635.41;;;6.66;100.00
50282;BME280;36176;51.506;10.272;2023-04-15T07:54:00;98640.53;;;6.69;100.00
50282;BME280;36176;51.506;10.272;2023-04-15T07:56:29;98638.88;;;6.66;100.00
50282;BME280;36176;51.506;10.272;2023-04-15T07:58:56;98634.66;;;6.62;100.00
50282;BME280;36176;51.506;10.272;2023-04-15T08:01:23;98638.34;;;6.58;100.00
50282;BME280;36176;51.506;10.272;2023-04-15T08:03:50;98641.91;;;6.57;100.00
50282;BME280;36176;51.506;10.272;2023-04-15T08:06:17;98640.28;;;6.54;100.00
50282;BME280;36176;51.506;10.272;2023-04-15T08:08:45;98638.50;;;6.55;100.00
50282;BME280;36176;51.506;10.272;2023-04-15T08:11:12;98639.44;;;6.54;100.00
50282;BME280;36176;51.506;10.272;2023-04-15T08:13:40;98641.06;;;6.56;100.00
50282;BME280;36176;51.506;10.272;2023-04-15T08:18:49;98638.50;;;6.55;100.00
50282;BME280;36176;51.506;10.272;2023-04-15T08:21:18;98628.91;;;6.54;100.00
50282;BME280;36176;51.506;10.272;2023-04-15T08:23:46;98632.88;;;6.63;100.00
50282;BME280;36176;51.506;10.272;2023-04-15T08:26:14;98631.03;;;6.65;100.00
50282;BME280;36176;51.506;10.272;2023-04-15T08:28:42;98627.41;;;6.67;100.00
50282;BME280;36176;51.506;10.272;2023-04-15T08:31:11;98633.53;;;6.68;100.00
50282;BME280;36176;51.506;10.272;2023-04-15T08:33:39;98636.94;;;6.70;100.00
50282;BME280;36176;51.506;10.272;2023-04-15T08:36:07;98632.63;;;6.69;100.00
50282;BME280;36176;51.506;10.272;2023-04-15T08:38:34;98637.09;;;6.67;100.00
50282;BME280;36176;51.506;10.272;2023-04-15T08:41:20;98636.84;;;6.73;100.00
50282;BME280;36176;51.506;10.272;2023-04-15T08:46:20;98640.44;;;6.70;100.00
50282;BME280;36176;51.506;10.272;2023-04-15T08:48:49;98649.22;;;6.71;100.00
50282;BME280;36176;51.506;10.272;2023-04-15T08:51:16;98645.63;;;6.72;100.00
50282;BME280;36176;51.506;10.272;2023-04-15T08:53:44;98648.31;;;6.70;100.00
50282;BME280;36176;51.506;10.272;2023-04-15T08:56:14;98642.94;;;6.73;100.00
50282;BME280;36176;51.506;10.272;2023-04-15T08:58:43;98638.59;;;6.72;100.00
50282;BME280;36176;51.506;10.272;2023-04-15T09:01:11;98646.38;;;6.75;100.00
50282;BME280;36176;51.506;10.272;2023-04-15T09:03:39;98638.47;;;6.75;100.00
50282;BME280;36176;51.506;10.272;2023-04-15T09:06:07;98636.53;;;6.79;100.00
50282;BME280;36176;51.506;10.272;2023-04-15T09:08:35;98644.59;;;6.76;100.00
50282;BME280;36176;51.506;10.272;2023-04-15T09:11:02;98648.22;;;6.73;100.00
50282;BME280;36176;51.506;10.272;2023-04-15T09:13:30;98651.44;;;6.80;100.00
50282;BME280;36176;51.506;10.272;2023-04-15T09:15:57;98656.56;;;6.83;100.00
50282;BME280;36176;51.506;10.272;2023-04-15T09:18:31;98656.47;;;6.85;100.00
50282;BME280;36176;51.506;10.272;2023-04-15T09:23:34;98651.53;;;6.97;100.00
50282;BME280;36176;51.506;10.272;2023-04-15T09:26:02;98658.06;;;7.08;100.00
50282;BME280;36176;51.506;10.272;2023-04-15T09:28:30;98658.78;;;7.11;100.00
50282;BME280;36176;51.506;10.272;2023-04-15T09:31:00;98657.28;;;7.06;100.00
50282;BME280;36176;51.506;10.272;2023-04-15T09:33:29;98656.47;;;7.03;100.00
50282;BME280;36176;51.506;10.272;2023-04-15T09:36:04;98663.38;;;7.06;100.00
50282;BME280;36176;51.506;10.272;2023-04-15T09:38:32;98666.75;;;7.10;100.00
50282;BME280;36176;51.506;10.272;2023-04-15T09:40:59;98667.53;;;7.12;100.00
50282;BME280;36176;51.506;10.272;2023-04-15T09:43:37;98663.75;;;7.17;100.00
50282;BME280;36176;51.506;10.272;2023-04-15T09:46:05;98680.34;;;7.19;100.00
50282;BME280;36176;51.506;10.272;2023-04-15T09:48:32;98674.09;;;7.22;100.00
50282;BME280;36176;51.506;10.272;2023-04-15T09:51:00;98678.66;;;7.18;100.00
50282;BME280;36176;51.506;10.272;2023-04-15T09:53:27;98677.88;;;7.16;100.00
50282;BME280;36176;51.506;10.272;2023-04-15T09:55:59;98679.50;;;7.19;100.00
50282;BME280;36176;51.506;10.272;2023-04-15T09:58:32;98670.59;;;7.21;100.00
50282;BME280;36176;51.506;10.272;2023-04-15T10:01:03;98677.56;;;7.22;100.00
50282;BME280;36176;51.506;10.272;2023-04-15T10:03:33;98684.28;;;7.30;100.00
50282;BME280;36176;51.506;10.272;2023-04-15T10:06:02;98682.41;;;7.32;100.00
50282;BME280;36176;51.506;10.272;2023-04-15T10:08:32;98681.50;;;7.33;100.00
50282;BME280;36176;51.506;10.272;2023-04-15T10:11:01;98686.47;;;7.39;100.00
50282;BME280;36176;51.506;10.272;2023-04-15T10:13:30;98686.34;;;7.42;100.00
50282;BME280;36176;51.506;10.272;2023-04-15T10:16:11;98697.66;;;7.44;100.00
50282;BME280;36176;51.506;10.272;2023-04-15T10:18:45;98690.38;;;7.49;100.00
50282;BME280;36176;51.506;10.272;2023-04-15T10:21:13;98691.16;;;7.51;100.00
50282;BME280;36176;51.506;10.272;2023-04-15T10:23:44;98695.97;;;7.43;100.00
50282;BME280;36176;51.506;10.272;2023-04-15T10:26:12;98696.13;;;7.40;100.00
50282;BME280;36176;51.506;10.272;2023-04-15T10:28:40;98690.75;;;7.41;100.00
50282;BME280;36176;51.506;10.272;2023-04-15T10:31:10;98700.38;;;7.42;100.00
50282;BME280;36176;51.506;10.272;2023-04-15T10:33:39;98703.88;;;7.43;100.00
50282;BME280;36176;51.506;10.272;2023-04-15T10:36:07;98700.22;;;7.45;100.00
50282;BME280;36176;51.506;10.272;2023-04-15T10:38:37;98700.22;;;7.45;100.00
50282;BME280;36176;51.506;10.272;2023-04-15T10:41:18;98708.72;;;7.52;100.00
50282;BME280;36176;51.506;10.272;2023-04-15T10:43:55;98701.88;;;7.48;100.00
50282;BME280;36176;51.506;10.272;2023-04-15T10:46:41;98702.50;;;7.53;100.00
50282;BME280;36176;51.506;10.272;2023-04-15T10:51:39;98701.66;;;7.72;100.00
50282;BME280;36176;51.506;10.272;2023-04-15T10:54:13;98708.41;;;7.77;100.00
50282;BME280;36176;51.506;10.272;2023-04-15T10:56:43;98702.44;;;7.74;100.00
50282;BME280;36176;51.506;10.272;2023-04-15T10:59:11;98714.81;;;7.72;100.00
50282;BME280;36176;51.506;10.272;2023-04-15T11:04:50;98715.69;;;7.72;100.00
50282;BME280;36176;51.506;10.272;2023-04-15T11:12:40;98732.00;;;7.61;100.00
50282;BME280;36176;51.506;10.272;2023-04-15T11:15:36;98722.44;;;7.59;100.00
50282;BME280;36176;51.506;10.272;2023-04-15T11:18:23;98731.34;;;7.56;100.00
50282;BME280;36176;51.506;10.272;2023-04-15T11:20:52;98730.59;;;7.54;100.00
50282;BME280;36176;51.506;10.272;2023-04-15T11:25:58;98741.00;;;7.57;100.00
50282;BME280;36176;51.506;10.272;2023-04-15T11:28:26;98735.78;;;7.56;100.00
50282;BME280;36176;51.506;10.272;2023-04-15T11:30:54;98741.63;;;7.62;100.00
50282;BME280;36176;51.506;10.272;2023-04-15T11:33:22;98741.78;;;7.59;100.00
50282;BME280;36176;51.506;10.272;2023-04-15T11:35:51;98744.19;;;7.64;100.00
50282;BME280;36176;51.506;10.272;2023-04-15T11:38:19;98740.41;;;7.70;100.00
50282;BME280;36176;51.506;10.272;2023-04-15T11:40:49;98744.31;;;7.80;100.00
50282;BME280;36176;51.506;10.272;2023-04-15T11:45:57;98748.91;;;7.76;100.00
50282;BME280;36176;51.506;10.272;2023-04-15T11:48:30;98749.25;;;7.69;100.00
50282;BME280;36176;51.506;10.272;2023-04-15T11:51:04;98755.16;;;7.74;100.00
50282;BME280;36176;51.506;10.272;2023-04-15T11:56:15;98758.13;;;7.85;100.00
50282;BME280;36176;51.506;10.272;2023-04-15T11:58:42;98766.34;;;7.98;100.00
50282;BME280;36176;51.506;10.272;2023-04-15T12:01:11;98767.03;;;8.01;100.00
50282;BME280;36176;51.506;10.272;2023-04-15T12:03:40;98765.19;;;8.03;100.00
50282;BME280;36176;51.506;10.272;2023-04-15T12:06:13;98773.31;;;7.99;100.00
50282;BME280;36176;51.506;10.272;2023-04-15T12:11:43;98787.13;;;7.85;100.00
50282;BME280;36176;51.506;10.272;2023-04-15T12:14:20;98781.59;;;7.91;100.00
50282;BME280;36176;51.506;10.272;2023-04-15T12:16:52;98776.88;;;7.98;100.00
50282;BME280;36176;51.506;10.272;2023-04-15T12:21:53;98790.63;;;8.04;100.00
50282;BME280;36176;51.506;10.272;2023-04-15T12:24:25;98782.94;;;8.00;100.00
50282;BME280;36176;51.506;10.272;2023-04-15T12:26:54;98791.72;;;8.00;100.00
50282;BME280;36176;51.506;10.272;2023-04-15T12:29:30;98798.31;;;8.09;100.00
50282;BME280;36176;51.506;10.272;2023-04-15T12:32:08;98793.53;;;8.17;100.00
50282;BME280;36176;51.506;10.272;2023-04-15T12:34:38;98792.81;;;8.14;100.00
50282;BME280;36176;51.506;10.272;2023-04-15T12:37:08;98803.09;;;8.20;100.00
50282;BME280;36176;51.506;10.272;2023-04-15T12:39:39;98809.00;;;8.25;100.00
50282;BME280;36176;51.506;10.272;2023-04-15T12:42:26;98808.78;;;8.29;100.00
50282;BME280;36176;51.506;10.272;2023-04-15T12:44:53;98807.78;;;8.32;100.00
50282;BME280;36176;51.506;10.272;2023-04-15T12:47:20;98802.34;;;8.35;100.00
50282;BME280;36176;51.506;10.272;2023-04-15T12:49:47;98824.06;;;8.42;100.00
50282;BME280;36176;51.506;10.272;2023-04-15T12:52:35;98820.19;;;8.49;100.00
50282;BME280;36176;51.506;10.272;2023-04-15T12:55:22;98824.78;;;8.45;100.00
50282;BME280;36176;51.506;10.272;2023-04-15T12:57:49;98826.75;;;8.40;100.00
50282;BME280;36176;51.506;10.272;2023-04-15T13:00:17;98821.59;;;8.37;100.00
50282;BME280;36176;51.506;10.272;2023-04-15T13:02:46;98830.75;;;8.30;100.00
50282;BME280;36176;51.506;10.272;2023-04-15T13:05:14;98834.53;;;8.24;100.00
50282;BME280;36176;51.506;10.272;2023-04-15T13:08:01;98832.91;;;8.22;100.00
50282;BME280;36176;51.506;10.272;2023-04-15T13:10:29;98831.47;;;8.34;100.00
50282;BME280;36176;51.506;10.272;2023-04-15T13:12:57;98829.34;;;8.42;100.00
50282;BME280;36176;51.506;10.272;2023-04-15T13:15:24;98837.75;;;8.50;100.00
50282;BME280;36176;51.506;10.272;2023-04-15T13:17:51;98844.66;;;8.52;100.00
50282;BME280;36176;51.506;10.272;2023-04-15T13:20:20;98841.47;;;8.46;100.00
50282;BME280;36176;51.506;10.272;2023-04-15T13:22:47;98842.31;;;8.46;100.00
50282;BME280;36176;51.506;10.272;2023-04-15T13:25:14;98850.44;;;8.42;100.00
50282;BME280;36176;51.506;10.272;2023-04-15T13:27:42;98864.06;;;8.32;100.00
50282;BME280;36176;51.506;10.272;2023-04-15T13:30:09;98860.28;;;8.38;100.00
50282;BME280;36176;51.506;10.272;2023-04-15T13:32:36;98863.00;;;8.37;100.00